Armindo Jose — CUCT6 — position and weather

sailwx.info

Track history (hours):
 
Tides and Currents Weather Stations Pressure Air Temp Water Temp Dewpoint Dewpoint Depression Visibility Wind Speed Wind Dir Waves Ship Positions

Armindo Jose

Last reported at 2017-Nov-17 15:38 UTC. Time now 2017-Nov-23 09:44 UTC.
Position N 38°26' W 009°07'.

MMSI: 204254000.

Date/timePositionNaut miles runAvg speedWind from/ knotsBaromVisibWave heightAir tempDewpointWater temp
2017-Nov-17 15:38N 38°26' W 009°07'0 0.7
2017-Nov-17 15:26N 38°26' W 009°07'2 4.2
2017-Nov-17 15:00N 38°25' W 009°09'4 7.2
2017-Nov-17 14:31N 38°25' W 009°13'4 7.7
2017-Nov-17 14:00N 38°28' W 009°16'2 3.6
2017-Nov-17 13:27N 38°30' W 009°17'1 1.0
2017-Nov-17 12:51N 38°30' W 009°18'0 1.0
2017-Nov-17 12:30N 38°30' W 009°18'1 1.0
2017-Nov-17 11:54N 38°29' W 009°19'1 1.2
2017-Nov-17 11:14N 38°29' W 009°20'2 7.4
2017-Nov-17 10:59N 38°28' W 009°21'0 0.7
2017-Nov-17 10:30N 38°28' W 009°22'0 0.9
2017-Nov-17 09:58N 38°28' W 009°22'1 1.3
2017-Nov-17 09:30N 38°27' W 009°22'3 3.5
2017-Nov-17 08:42N 38°28' W 009°26'0 2.4
2017-Nov-17 08:30N 38°28' W 009°26'1 1.0
2017-Nov-17 07:55N 38°28' W 009°25'1 1.7
2017-Nov-17 07:09N 38°29' W 009°26'1 0.5
2017-Nov-17 05:06N 38°30' W 009°26'1 7.8
2017-Nov-17 05:00N 38°30' W 009°25'10 6.0
2017-Nov-17 03:17N 38°25' W 009°14'2 7.8
2017-Nov-17 03:00N 38°24' W 009°11'4 8.1
2017-Nov-17 02:30N 38°26' W 009°07'0 0.0
2017-Nov-16 16:21N 38°26' W 009°07'0 0.4
2017-Nov-16 15:59N 38°26' W 009°07'3 6.0
2017-Nov-16 15:30N 38°25' W 009°10'3 6.7
2017-Nov-16 15:00N 38°25' W 009°14'4 8.0
2017-Nov-16 14:30N 38°29' W 009°16'1 1.4
2017-Nov-16 13:56N 38°30' W 009°17'0 1.0
2017-Nov-16 13:28N 38°30' W 009°18'1 1.1
2017-Nov-16 12:54N 38°30' W 009°19'1 1.4
2017-Nov-16 12:29N 38°29' W 009°19'1 1.9
2017-Nov-16 11:58N 38°29' W 009°20'5 2.0
2017-Nov-16 09:41N 38°29' W 009°26'1 6.3
2017-Nov-16 09:30N 38°29' W 009°27'2 1.1
2017-Nov-16 07:46N 38°28' W 009°26'1 0.3
2017-Nov-16 05:18N 38°28' W 009°25'3 4.4
2017-Nov-16 04:34N 38°30' W 009°22'1 8.1
2017-Nov-16 04:30N 38°30' W 009°22'4 5.5
2017-Nov-16 03:44N 38°29' W 009°17'2 7.5
2017-Nov-16 03:31N 38°28' W 009°16'4 7.7
2017-Nov-16 03:01N 38°25' W 009°13'4 7.6
2017-Nov-16 02:31N 38°25' W 009°09'2 0.2
2017-Nov-15 15:59N 38°26' W 009°07'3 4.0
2017-Nov-15 15:18N 38°24' W 009°05'2 7.9
2017-Nov-15 15:01N 38°22' W 009°04'2 1.9
2017-Nov-15 14:08N 38°20' W 009°03'0 1.2
2017-Nov-15 13:59N 38°20' W 009°03'0 1.0
2017-Nov-15 13:30N 38°19' W 009°03'0 0.9
2017-Nov-15 12:57N 38°19' W 009°03'0 1.1
2017-Nov-15 12:30N 38°19' W 009°03'1 1.3
2017-Nov-15 12:00N 38°18' W 009°02'1 1.2
2017-Nov-15 11:30N 38°18' W 009°02'1 1.2
2017-Nov-15 11:00N 38°17' W 009°01'2 5.1
2017-Nov-15 10:30N 38°15' W 008°60'2 3.4
2017-Nov-15 10:00N 38°13' W 008°60'1 1.2
2017-Nov-15 09:31N 38°13' W 008°59'1 1.3
2017-Nov-15 08:59N 38°12' W 008°59'1 1.2
2017-Nov-15 08:30N 38°12' W 008°59'1 1.3
2017-Nov-15 08:00N 38°11' W 008°58'0 0.8
2017-Nov-15 07:31N 38°11' W 008°59'0 0.4
2017-Nov-15 07:00N 38°11' W 008°58'0 0.2
2017-Nov-15 06:25N 38°11' W 008°58'0 0.4
2017-Nov-15 06:00N 38°11' W 008°58'0 0.4
2017-Nov-15 05:26N 38°11' W 008°59'0 0.5
2017-Nov-15 05:00N 38°11' W 008°59'6 4.6
2017-Nov-15 03:48N 38°17' W 009°00'2 6.3
2017-Nov-15 03:31N 38°18' W 009°02'3 6.1
2017-Nov-15 03:01N 38°21' W 009°04'4 7.8
2017-Nov-15 02:30N 38°24' W 009°06'2 0.2
2017-Nov-14 17:48N 38°26' W 009°07'0 0.3
2017-Nov-14 17:29N 38°26' W 009°07'6 7.1
2017-Nov-14 16:40N 38°25' W 009°14'1 7.8
2017-Nov-14 16:29N 38°26' W 009°15'4 7.5
2017-Nov-14 15:58N 38°30' W 009°17'0 0.4
2017-Nov-14 15:26N 38°30' W 009°17'0 0.6
2017-Nov-14 14:56N 38°30' W 009°17'1 0.6
2017-Nov-14 12:41N 38°29' W 009°19'0 0.6
2017-Nov-14 12:28N 38°29' W 009°19'0 0.5
2017-Nov-14 11:57N 38°29' W 009°20'4 2.1
2017-Nov-14 09:51N 38°29' W 009°25'2 6.1
2017-Nov-14 09:29N 38°27' W 009°24'3 0.7
2017-Nov-14 04:33N 38°30' W 009°22'0 7.9
2017-Nov-14 04:30N 38°30' W 009°22'5 5.3
2017-Nov-14 03:34N 38°28' W 009°16'0 7.4
2017-Nov-14 03:30N 38°28' W 009°16'4 7.6
2017-Nov-14 03:00N 38°25' W 009°14'4 7.6
2017-Nov-14 02:30N 38°25' W 009°09'  
2017-Nov-11 11:07N 38°26' W 009°07'0 0.0
2017-Nov-11 08:59N 38°26' W 009°07'0 0.0
2017-Nov-11 07:42N 38°26' W 009°07'0 0.0
2017-Nov-11 07:30N 38°26' W 009°07'0 0.0
2017-Nov-10 17:31N 38°26' W 009°07'0 0.0
2017-Nov-10 17:30N 38°26' W 009°07'1 1.3
2017-Nov-10 17:00N 38°26' W 009°07'4 7.9
2017-Nov-10 16:30N 38°24' W 009°12'4 7.8
2017-Nov-10 16:00N 38°27' W 009°16'3 2.8
2017-Nov-10 14:48N 38°30' W 009°18'1 0.5
2017-Nov-10 13:17N 38°29' W 009°19'0 0.4
2017-Nov-10 12:58N 38°29' W 009°19'1 0.5
2017-Nov-10 11:46N 38°29' W 009°19'0 1.0
2017-Nov-10 11:27N 38°28' W 009°19'3 6.1
2017-Nov-10 11:00N 38°27' W 009°22'1 0.9
2017-Nov-10 10:15N 38°28' W 009°22'0 1.3
2017-Nov-10 10:00N 38°27' W 009°22'4 0.8
2017-Nov-10 05:02N 38°30' W 009°26'0 7.5
2017-Nov-10 05:00N 38°30' W 009°26'4 7.5
2017-Nov-10 04:28N 38°29' W 009°21'2 4.5
2017-Nov-10 04:00N 38°30' W 009°19'3 6.0
2017-Nov-10 03:28N 38°27' W 009°16'7 6.0
2017-Nov-10 02:19N 38°26' W 009°07'1 0.1
2017-Nov-09 15:08N 38°26' W 009°07'0 0.5
2017-Nov-09 14:49N 38°26' W 009°07'2 6.0
2017-Nov-09 14:25N 38°25' W 009°09'3 7.5
2017-Nov-09 14:00N 38°25' W 009°13'4 7.8
2017-Nov-09 13:30N 38°28' W 009°17'2 4.7
2017-Nov-09 12:59N 38°30' W 009°18'2 0.9
2017-Nov-09 10:58N 38°28' W 009°19'5 0.9
2017-Nov-09 05:36N 38°29' W 009°26'1 7.3
2017-Nov-09 05:30N 38°29' W 009°25'4 7.3
2017-Nov-09 04:59N 38°28' W 009°20'2 4.7
2017-Nov-09 04:30N 38°30' W 009°18'4 6.3
2017-Nov-09 03:57N 38°27' W 009°15'7 6.0
2017-Nov-09 02:48N 38°26' W 009°07'0 0.0
2017-Nov-08 15:52N 38°26' W 009°07'5 4.9
2017-Nov-08 14:46N 38°25' W 009°13'2 7.7
2017-Nov-08 14:30N 38°26' W 009°15'4 8.0
2017-Nov-08 13:59N 38°29' W 009°18'1 0.6
2017-Nov-08 12:44N 38°30' W 009°19'0 0.8
2017-Nov-08 12:26N 38°30' W 009°19'1 1.0
2017-Nov-08 11:06N 38°28' W 009°19'0 1.1
2017-Nov-08 10:53N 38°28' W 009°19'2 6.3
2017-Nov-08 10:30N 38°30' W 009°22'2 3.5
2017-Nov-08 09:58N 38°31' W 009°23'0 0.7
2017-Nov-08 09:30N 38°31' W 009°23'0 0.7
2017-Nov-08 09:00N 38°30' W 009°23'0 0.8
2017-Nov-08 08:29N 38°30' W 009°23'0 0.8
2017-Nov-08 07:58N 38°30' W 009°23'0 0.8
2017-Nov-08 07:29N 38°29' W 009°23'1 2.7
2017-Nov-08 07:00N 38°30' W 009°23'0 0.6
2017-Nov-08 06:30N 38°30' W 009°23'0 0.8
2017-Nov-08 05:58N 38°30' W 009°23'1 1.0
2017-Nov-08 05:29N 38°29' W 009°23'1 1.1
2017-Nov-08 04:57N 38°29' W 009°23'2 4.1
2017-Nov-08 04:30N 38°28' W 009°20'3 4.8
2017-Nov-08 03:59N 38°30' W 009°18'3 6.4
2017-Nov-08 03:29N 38°27' W 009°16'3 7.0
2017-Nov-08 02:59N 38°24' W 009°13'5 7.6
2017-Nov-08 02:22N 38°25' W 009°08'1 0.1
2017-Nov-07 17:40N 38°26' W 009°07'0 0.8
2017-Nov-07 17:28N 38°26' W 009°07'2 4.8
2017-Nov-07 16:59N 38°25' W 009°09'4 7.4
2017-Nov-07 16:28N 38°25' W 009°14'4 8.2
2017-Nov-07 16:00N 38°28' W 009°17'  
Track history (hours):
 
Tides and Currents Weather Stations Pressure Air Temp Water Temp Dewpoint Dewpoint Depression Visibility Wind Speed Wind Dir Waves Ship Positions

Armindo Jose

Last reported at 2017-Nov-17 15:38 UTC. Time now 2017-Nov-23 09:44 UTC.
Position N 38°26' W 009°07'.

MMSI: 204254000.

Date/timePositionNaut miles runAvg speedWind from/ knotsBaromVisibWave heightAir tempDewpointWater temp
2017-Nov-17 15:38N 38°26' W 009°07'0 0.7
2017-Nov-17 15:26N 38°26' W 009°07'2 4.2
2017-Nov-17 15:00N 38°25' W 009°09'4 7.2
2017-Nov-17 14:31N 38°25' W 009°13'4 7.7
2017-Nov-17 14:00N 38°28' W 009°16'2 3.6
2017-Nov-17 13:27N 38°30' W 009°17'1 1.0
2017-Nov-17 12:51N 38°30' W 009°18'0 1.0
2017-Nov-17 12:30N 38°30' W 009°18'1 1.0
2017-Nov-17 11:54N 38°29' W 009°19'1 1.2
2017-Nov-17 11:14N 38°29' W 009°20'2 7.4
2017-Nov-17 10:59N 38°28' W 009°21'0 0.7
2017-Nov-17 10:30N 38°28' W 009°22'0 0.9
2017-Nov-17 09:58N 38°28' W 009°22'1 1.3
2017-Nov-17 09:30N 38°27' W 009°22'3 3.5
2017-Nov-17 08:42N 38°28' W 009°26'0 2.4
2017-Nov-17 08:30N 38°28' W 009°26'1 1.0
2017-Nov-17 07:55N 38°28' W 009°25'1 1.7
2017-Nov-17 07:09N 38°29' W 009°26'1 0.5
2017-Nov-17 05:06N 38°30' W 009°26'1 7.8
2017-Nov-17 05:00N 38°30' W 009°25'10 6.0
2017-Nov-17 03:17N 38°25' W 009°14'2 7.8
2017-Nov-17 03:00N 38°24' W 009°11'4 8.1
2017-Nov-17 02:30N 38°26' W 009°07'0 0.0
2017-Nov-16 16:21N 38°26' W 009°07'0 0.4
2017-Nov-16 15:59N 38°26' W 009°07'3 6.0
2017-Nov-16 15:30N 38°25' W 009°10'3 6.7
2017-Nov-16 15:00N 38°25' W 009°14'4 8.0
2017-Nov-16 14:30N 38°29' W 009°16'1 1.4
2017-Nov-16 13:56N 38°30' W 009°17'0 1.0
2017-Nov-16 13:28N 38°30' W 009°18'1 1.1
2017-Nov-16 12:54N 38°30' W 009°19'1 1.4
2017-Nov-16 12:29N 38°29' W 009°19'1 1.9
2017-Nov-16 11:58N 38°29' W 009°20'5 2.0
2017-Nov-16 09:41N 38°29' W 009°26'1 6.3
2017-Nov-16 09:30N 38°29' W 009°27'2 1.1
2017-Nov-16 07:46N 38°28' W 009°26'1 0.3
2017-Nov-16 05:18N 38°28' W 009°25'3 4.4
2017-Nov-16 04:34N 38°30' W 009°22'1 8.1
2017-Nov-16 04:30N 38°30' W 009°22'4 5.5
2017-Nov-16 03:44N 38°29' W 009°17'2 7.5
2017-Nov-16 03:31N 38°28' W 009°16'4 7.7
2017-Nov-16 03:01N 38°25' W 009°13'4 7.6
2017-Nov-16 02:31N 38°25' W 009°09'2 0.2
2017-Nov-15 15:59N 38°26' W 009°07'3 4.0
2017-Nov-15 15:18N 38°24' W 009°05'2 7.9
2017-Nov-15 15:01N 38°22' W 009°04'2 1.9
2017-Nov-15 14:08N 38°20' W 009°03'0 1.2
2017-Nov-15 13:59N 38°20' W 009°03'0 1.0
2017-Nov-15 13:30N 38°19' W 009°03'0 0.9
2017-Nov-15 12:57N 38°19' W 009°03'0 1.1
2017-Nov-15 12:30N 38°19' W 009°03'1 1.3
2017-Nov-15 12:00N 38°18' W 009°02'1 1.2
2017-Nov-15 11:30N 38°18' W 009°02'1 1.2
2017-Nov-15 11:00N 38°17' W 009°01'2 5.1
2017-Nov-15 10:30N 38°15' W 008°60'2 3.4
2017-Nov-15 10:00N 38°13' W 008°60'1 1.2
2017-Nov-15 09:31N 38°13' W 008°59'1 1.3
2017-Nov-15 08:59N 38°12' W 008°59'1 1.2
2017-Nov-15 08:30N 38°12' W 008°59'1 1.3
2017-Nov-15 08:00N 38°11' W 008°58'0 0.8
2017-Nov-15 07:31N 38°11' W 008°59'0 0.4
2017-Nov-15 07:00N 38°11' W 008°58'0 0.2
2017-Nov-15 06:25N 38°11' W 008°58'0 0.4
2017-Nov-15 06:00N 38°11' W 008°58'0 0.4
2017-Nov-15 05:26N 38°11' W 008°59'0 0.5
2017-Nov-15 05:00N 38°11' W 008°59'6 4.6
2017-Nov-15 03:48N 38°17' W 009°00'2 6.3
2017-Nov-15 03:31N 38°18' W 009°02'3 6.1
2017-Nov-15 03:01N 38°21' W 009°04'4 7.8
2017-Nov-15 02:30N 38°24' W 009°06'2 0.2
2017-Nov-14 17:48N 38°26' W 009°07'0 0.3
2017-Nov-14 17:29N 38°26' W 009°07'6 7.1
2017-Nov-14 16:40N 38°25' W 009°14'1 7.8
2017-Nov-14 16:29N 38°26' W 009°15'4 7.5
2017-Nov-14 15:58N 38°30' W 009°17'0 0.4
2017-Nov-14 15:26N 38°30' W 009°17'0 0.6
2017-Nov-14 14:56N 38°30' W 009°17'1 0.6
2017-Nov-14 12:41N 38°29' W 009°19'0 0.6
2017-Nov-14 12:28N 38°29' W 009°19'0 0.5
2017-Nov-14 11:57N 38°29' W 009°20'4 2.1
2017-Nov-14 09:51N 38°29' W 009°25'2 6.1
2017-Nov-14 09:29N 38°27' W 009°24'3 0.7
2017-Nov-14 04:33N 38°30' W 009°22'0 7.9
2017-Nov-14 04:30N 38°30' W 009°22'5 5.3
2017-Nov-14 03:34N 38°28' W 009°16'0 7.4
2017-Nov-14 03:30N 38°28' W 009°16'4 7.6
2017-Nov-14 03:00N 38°25' W 009°14'4 7.6
2017-Nov-14 02:30N 38°25' W 009°09'  
2017-Nov-11 11:07N 38°26' W 009°07'0 0.0
2017-Nov-11 08:59N 38°26' W 009°07'0 0.0
2017-Nov-11 07:42N 38°26' W 009°07'0 0.0
2017-Nov-11 07:30N 38°26' W 009°07'0 0.0
2017-Nov-10 17:31N 38°26' W 009°07'0 0.0
2017-Nov-10 17:30N 38°26' W 009°07'1 1.3
2017-Nov-10 17:00N 38°26' W 009°07'4 7.9
2017-Nov-10 16:30N 38°24' W 009°12'4 7.8
2017-Nov-10 16:00N 38°27' W 009°16'3 2.8
2017-Nov-10 14:48N 38°30' W 009°18'1 0.5
2017-Nov-10 13:17N 38°29' W 009°19'0 0.4
2017-Nov-10 12:58N 38°29' W 009°19'1 0.5
2017-Nov-10 11:46N 38°29' W 009°19'0 1.0
2017-Nov-10 11:27N 38°28' W 009°19'3 6.1
2017-Nov-10 11:00N 38°27' W 009°22'1 0.9
2017-Nov-10 10:15N 38°28' W 009°22'0 1.3
2017-Nov-10 10:00N 38°27' W 009°22'4 0.8
2017-Nov-10 05:02N 38°30' W 009°26'0 7.5
2017-Nov-10 05:00N 38°30' W 009°26'4 7.5
2017-Nov-10 04:28N 38°29' W 009°21'2 4.5
2017-Nov-10 04:00N 38°30' W 009°19'3 6.0
2017-Nov-10 03:28N 38°27' W 009°16'7 6.0
2017-Nov-10 02:19N 38°26' W 009°07'1 0.1
2017-Nov-09 15:08N 38°26' W 009°07'0 0.5
2017-Nov-09 14:49N 38°26' W 009°07'2 6.0
2017-Nov-09 14:25N 38°25' W 009°09'3 7.5
2017-Nov-09 14:00N 38°25' W 009°13'4 7.8
2017-Nov-09 13:30N 38°28' W 009°17'2 4.7
2017-Nov-09 12:59N 38°30' W 009°18'2 0.9
2017-Nov-09 10:58N 38°28' W 009°19'5 0.9
2017-Nov-09 05:36N 38°29' W 009°26'1 7.3
2017-Nov-09 05:30N 38°29' W 009°25'4 7.3
2017-Nov-09 04:59N 38°28' W 009°20'2 4.7
2017-Nov-09 04:30N 38°30' W 009°18'4 6.3
2017-Nov-09 03:57N 38°27' W 009°15'7 6.0
2017-Nov-09 02:48N 38°26' W 009°07'0 0.0
2017-Nov-08 15:52N 38°26' W 009°07'5 4.9
2017-Nov-08 14:46N 38°25' W 009°13'2 7.7
2017-Nov-08 14:30N 38°26' W 009°15'4 8.0
2017-Nov-08 13:59N 38°29' W 009°18'1 0.6
2017-Nov-08 12:44N 38°30' W 009°19'0 0.8
2017-Nov-08 12:26N 38°30' W 009°19'1 1.0
2017-Nov-08 11:06N 38°28' W 009°19'0 1.1
2017-Nov-08 10:53N 38°28' W 009°19'2 6.3
2017-Nov-08 10:30N 38°30' W 009°22'2 3.5
2017-Nov-08 09:58N 38°31' W 009°23'0 0.7
2017-Nov-08 09:30N 38°31' W 009°23'0 0.7
2017-Nov-08 09:00N 38°30' W 009°23'0 0.8
2017-Nov-08 08:29N 38°30' W 009°23'0 0.8
2017-Nov-08 07:58N 38°30' W 009°23'0 0.8
2017-Nov-08 07:29N 38°29' W 009°23'1 2.7
2017-Nov-08 07:00N 38°30' W 009°23'0 0.6
2017-Nov-08 06:30N 38°30' W 009°23'0 0.8
2017-Nov-08 05:58N 38°30' W 009°23'1 1.0
2017-Nov-08 05:29N 38°29' W 009°23'1 1.1
2017-Nov-08 04:57N 38°29' W 009°23'2 4.1
2017-Nov-08 04:30N 38°28' W 009°20'3 4.8
2017-Nov-08 03:59N 38°30' W 009°18'3 6.4
2017-Nov-08 03:29N 38°27' W 009°16'3 7.0
2017-Nov-08 02:59N 38°24' W 009°13'5 7.6
2017-Nov-08 02:22N 38°25' W 009°08'1 0.1
2017-Nov-07 17:40N 38°26' W 009°07'0 0.8
2017-Nov-07 17:28N 38°26' W 009°07'2 4.8
2017-Nov-07 16:59N 38°25' W 009°09'4 7.4
2017-Nov-07 16:28N 38°25' W 009°14'4 8.2
2017-Nov-07 16:00N 38°28' W 009°17'  

Dump ship's entire track history